ETEB 230456Z AUTO 10005KT 9999 CLR M03/M05 A3067 RMK AO2 SLP421 T10331050 $ EDMA 230450Z AUTO 06003KT 9999 // NCD M03/M04 Q1038 ETIK 230456Z AUTO 09004KT 9999 CLR M03/M03 A3070 RMK AO2 SLP413 T10321032 $ EDDT 230520Z 14005KT 110V170 CAVOK M02/M09 Q1044 NOSIG LSZB 230520Z 00000KT 9999 BCFG NSC M03/M03 Q1032 NOSIG EDDW 230520Z 11007KT CAVOK 00/M02 Q1041 NOSIG LFMD 230500Z AUTO VRB04KT CAVOK 05/04 Q1026 NOSIG EDLW 230450Z 06002KT CAVOK 02/01 Q1038 EDDC 230520Z 16005KT CAVOK M05/M08 Q1041 NOSIG EDDL 230520Z 15010KT CAVOK 05/02 Q1038 TEMPO BKN014 EDDE 230520Z VRB02KT CAVOK M03/M05 Q1040 NOSIG LIRQ 230450Z 02007KT 340V070 CAVOK 09/M01 Q1028 EDDF 230520Z 05007KT 9999 FEW019 02/M01 Q1039 NOSIG EDNY 230450Z AUTO 01005KT 9999 // NCD 02/00 Q1035 ETHF 230420Z 10007KT 9999 BKN320 M01/M03 Q1040 BLU+ LIMJ 230450Z VRB02KT CAVOK 09/02 Q1026 ETIC 230456Z AUTO 00000KT 9999 CLR M04/M06 A3071 RMK AO2 SLP427 T10441062 FZRANO $ LOWG 230450Z AUTO 07005KT 9999 NSC M04/M13 Q1039 R17/D NOSIG EDDH 230520Z 09005KT 060V130 CAVOK M01/M05 Q1043 NOSIG EDDV 230520Z 08007KT CAVOK M03/M04 Q1042 NOSIG ETIH 230456Z AUTO 00000KT 9999 CLR M05/M05 A3071 RMK AO2 SLP426 T10531054 $ ETSI 230420Z AUTO 07004KT 8000 // ////// M02/M05 Q1039 /// LOWI 230450Z 06006KT 9999 FEW008 OVC012 03/02 Q1036 NOSIG EDVK 230450Z 07004KT CAVOK M02/M04 Q1040 LOWK 230450Z 07007KT CAVOK M01/M12 Q1036 NOSIG EDDK 230520Z 13008KT 9999 BKN012 05/02 Q1039 BECMG SCT012 EDDP 230520Z 10006KT CAVOK M05/M07 Q1042 NOSIG LOWL 230450Z 08008KT 9999 FEW028 M04/M08 Q1042 NOSIG LSZA 230520Z 16004KT 100V210 CAVOK 03/M01 Q1030 NOSIG LIML 230450Z 11013KT 7000 NSC 07/04 Q1030 NOSIG LFML 230500Z AUTO VRB03KT CAVOK 06/04 Q1026 NOSIG LFMT 230500Z AUTO 01005KT CAVOK 09/04 Q1026 NOSIG EDLN 230450Z AUTO 13005KT 9999 // NCD 04/02 Q1038 EDDM 230520Z 08009KT CAVOK M02/M05 Q1038 NOSIG EDDG 230520Z VRB03KT CAVOK 02/00 Q1039 NOSIG ETSN 230420Z 04005KT 9999 FEW330 M03/M05 Q1039 BLU+ ETHN 230420Z AUTO 11010KT 9999 // ////// M01/M02 Q1038 /// LFMN 230500Z 33004KT 9999 FEW008 09/02 Q1026 NOSIG EDDN 230520Z 10006KT CAVOK M03/M07 Q1040 NOSIG EDLP 230450Z 12011KT CAVOK 01/M01 Q1039 LIPR 230450Z AUTO 07015KT 9999 FEW042/// 06/M05 Q1033 EDDR 230520Z 07010KT CAVOK 02/01 Q1036 NOSIG LOWS 230450Z 30004KT 9999 FEW025 M03/M07 Q1039 NOSIG LSGS 230520Z AUTO 08003KT CAVOK 02/M01 Q1031 EDDS 230520Z 08009KT 9999 FEW015 M00/M02 Q1037 NOSIG LFTH 230500Z AUTO 04004KT CAVOK 02/01 Q1025 NOSIG LIMF 230450Z VRB02KT CAVOK 04/M01 Q1028 LIPI 230055Z /////KT 0500 FG NSC 05/04 Q1028 RMK SKC VIS MIN 0500 WIND THR06 07004KT WIND THR24 03002KT RED LIPZ 230450Z 09013KT CAVOK 05/M04 Q1033 NOSIG LIPX 230450Z 10009KT 9999 SCT030 07/03 Q1032 LOWW 230450Z 34011KT CAVOK M05/M11 Q1042 NOSIG LSZH 230520Z 07006KT 020V140 9999 FEW013 SCT016 04/02 Q1034 TEMPO BKN014

METAR Messwerte

Klicken Sie auf einen Ort, um die 36h-Historie abzurufen

Ort
m ü. NN
Zeit Temperatur Taupunkt Rel.
Luftfeuchte
Luftdruck:
Altimeter
NN
Station
Wind in Beaufort
(Knoten)
Sichtweite
(Meter)
Wolken
(Meter über Grund)
Wettererscheinung
Ansbach
467
Sa 23.02. 05:56-3-586 %1039
1043
983
O 2 (5)>= 10000  
Augsburg
463
Sa 23.02. 05:50-3-493 %1038
1042
983
ONO 2 (3)>= 10000  
Bad Windsheim / Illesheim
325
Sa 23.02. 05:56-3-3100 %1040
1043
1001
O 2 (4)>= 10000  
Berlin-Tegel
37
Sa 23.02. 06:20-2-959 %1044
1044
1039
SO 2 (5)
OSO - S
>= 10000Nicht signifikant 
Bern/Belp
505
Sa 23.02. 06:20-3-3100 %1032
1036
972
Windstill>= 10000Nicht signifikantNebel-Bänke
Bremen
5
Sa 23.02. 06:200-286 %1041
1041
1040
OSO 3 (7)>= 10000Nicht signifikant 
Cannes
9
Sa 23.02. 06:005493 %1026
1026
1025
Uml 2 (4)>= 10000Nicht signifikant 
Dortmund/Wickede
127
Sa 23.02. 05:502193 %1038
1039
1023
ONO 1 (2)>= 10000Nicht signifikant 
Dresden-Klotzsche
226
Sa 23.02. 06:20-5-879 %1041
1043
1014
SSO 2 (5)>= 10000Nicht signifikant 
Düsseldorf
44
Sa 23.02. 06:205281 %1038
1038
1033
SSO 3 (10)>= 10000Nicht signifikant 
Erfurt-Bindersleben
323
Sa 23.02. 06:20-3-586 %1040
1043
1001
Uml 1 (2)>= 10000Nicht signifikant 
Florenz
38
Sa 23.02. 05:509-149 %1028
1028
1023
NNO 3 (7)
NNW - ONO
>= 10000Nicht signifikant 
Frankfurt
113
Sa 23.02. 06:202-180 %1039
1040
1025
NO 3 (7)>= 10000Leicht bewölkt (580) 
Friedrichshafen
424
Sa 23.02. 05:502087 %1035
1038
984
N 2 (5)>= 10000  
Fritzlar
181
Sa 23.02. 05:20-1-386 %1040
1041
1018
O 3 (7)>= 10000Stark bewölkt (9800) 
Genua
3
Sa 23.02. 05:509261 %1026
1026
1026
Uml 1 (2)>= 10000Nicht signifikant 
Grafenwöhr
415
Sa 23.02. 05:56-4-686 %1040
1044
990
Windstill>= 10000  
Graz-Thalerhof
347
Sa 23.02. 05:50-4-1349 %1039
1042
997
ONO 2 (5)>= 10000Nicht signifikant 
Hamburg-Fuhlsbüttel
16
Sa 23.02. 06:20-1-574 %1043
1043
1041
O 2 (5)
ONO - SO
>= 10000Nicht signifikant 
Hannover
54
Sa 23.02. 06:20-3-493 %1042
1042
1035
O 3 (7)>= 10000Nicht signifikant 
Hohenfels
442
Sa 23.02. 05:56-5-5100 %1040
1044
987
Windstill>= 10000  
Ingolstadt
370
Sa 23.02. 05:20-2-580 %1039
1042
994
ONO 2 (4)8000  
Innsbruck
581
Sa 23.02. 05:503293 %1036
1039
967
ONO 2 (6)>= 10000Bedeckt (370)
Leicht bewölkt (240)
 
Kassel/Calden
285
Sa 23.02. 05:50-2-486 %1040
1042
1006
ONO 2 (4)>= 10000Nicht signifikant 
Klagenfurt
441
Sa 23.02. 05:50-1-1243 %1036
1039
983
ONO 3 (7)>= 10000Nicht signifikant 
Köln/Bonn
99
Sa 23.02. 06:205281 %1039
1040
1027
SO 3 (8)>= 10000Stark bewölkt (370) 
Leipzig-Schkeuditz
149
Sa 23.02. 06:20-5-786 %1042
1043
1024
O 2 (6)>= 10000Nicht signifikant 
Linz/Hörsching
313
Sa 23.02. 05:50-4-874 %1042
1045
1004
O 3 (8)>= 10000Leicht bewölkt (850) 
Lugano
276
Sa 23.02. 06:203-175 %1030
1032
997
SSO 2 (4)
O - SSW
>= 10000Nicht signifikant 
Mailand
103
Sa 23.02. 05:507481 %1030
1030
1018
OSO 4 (13)7000Nicht signifikant 
Marseille/Marignane
36
Sa 23.02. 06:006487 %1026
1026
1022
Uml 2 (3)>= 10000Nicht signifikant 
Montpellier
6
Sa 23.02. 06:009471 %1026
1026
1025
N 2 (5)>= 10000Nicht signifikant 
Mönchengladbach
38
Sa 23.02. 05:504287 %1038
1038
1033
SO 2 (5)>= 10000  
München
447
Sa 23.02. 06:20-2-580 %1038
1042
984
O 3 (9)>= 10000Nicht signifikant 
Münster/Osnabrück
52
Sa 23.02. 06:202087 %1039
1039
1033
Uml 2 (3)>= 10000Nicht signifikant 
Neuburg/Donau
387
Sa 23.02. 05:20-3-586 %1039
1042
992
NO 2 (5)>= 10000Leicht bewölkt (10000) 
Niederstetten
473
Sa 23.02. 05:20-1-293 %1038
1042
981
OSO 3 (10)>= 10000  
Nizza
10
Sa 23.02. 06:009261 %1026
1026
1025
NNW 2 (4)>= 10000Leicht bewölkt (240) 
Nürnberg
312
Sa 23.02. 06:20-3-774 %1040
1043
1002
O 2 (6)>= 10000Nicht signifikant 
Paderborn/Lippstadt
213
Sa 23.02. 05:501-186 %1039
1040
1013
OSO 4 (11)>= 10000Nicht signifikant 
Rimini
13
Sa 23.02. 05:506-545 %1033
1033
1031
ONO 4 (15)>= 10000Leicht bewölkt (1300) 
Saarbrücken/Ensheim
320
Sa 23.02. 06:202193 %1036
1038
997
ONO 3 (10)>= 10000Nicht signifikant 
Salzburg
450
Sa 23.02. 05:50-3-774 %1039
1043
985
WNW 2 (4)>= 10000Leicht bewölkt (760) 
Sion
481
Sa 23.02. 06:202-180 %1031
1034
974
O 2 (3)>= 10000Nicht signifikant 
Stuttgart
419
Sa 23.02. 06:20-0-286 %1037
1040
987
O 3 (9)>= 10000Leicht bewölkt (460) 
Toulon
4
Sa 23.02. 06:002193 %1025
1025
1025
NO 2 (4)>= 10000Nicht signifikant 
Turin
287
Sa 23.02. 05:504-170 %1028
1030
994
Uml 1 (2)>= 10000Nicht signifikant 
Udine/Rivolto
53
Sa 23.02. 01:555493 %1028
1028
1022
ONO 2 (4)500Nicht signifikantNebel
Venedig
6
Sa 23.02. 05:505-452 %1033
1033
1032
O 4 (13)>= 10000Nicht signifikant 
Verona/Villafranca
68
Sa 23.02. 05:507376 %1032
1032
1024
O 3 (9)>= 10000Wolkig (910) 
Wien/Schwechat
190
Sa 23.02. 05:50-5-1163 %1042
1044
1019
NNW 4 (11)>= 10000Nicht signifikant 
Zürich-Kloten
432
Sa 23.02. 06:204287 %1034
1036
982
ONO 2 (6)
NNO - SO
>= 10000Wolkig (490)
Leicht bewölkt (400)
 

Altimeter: Einstellung am Altimeter (Höhenmesser), die Höhe 0 muss auf diesen Luftdruckwert zeigen, damit das Gerät die Stationshöhe richtig anzeigt.

NN: Luftdruck reduziert auf "Normal Null", auf Meereshöhe, dieser von der Temperatur abhängige Wert wird bisweilen unkorrekt einfach als "Luftdruck" bezeichnet. Eigentlich nur eine fiktive Größe, die es erlaubt, Stationen auf unterschiedlichen Höhen miteinander zu vergleichen.

Station: Realer Luftdruck an der Station.